TimePST,TemperatureF,Dew PointF,Humidity,Sea Level PressureIn,VisibilityMPH,Wind Direction,Wind SpeedMPH,Gust SpeedMPH,PrecipitationIn,Events,Conditions,WindDirDegrees,DateUTC
12:53 AM,32.0,21.0,64,30.11,10.0,SSE,10.4,-,N/A,,Clear,160,2012-11-07 08:53:00
1:53 AM,32.0,21.0,64,30.09,10.0,South,9.2,-,N/A,,Clear,180,2012-11-07 09:53:00
2:53 AM,32.0,21.0,64,30.06,10.0,South,11.5,-,N/A,,Clear,170,2012-11-07 10:53:00
3:53 AM,30.0,21.0,69,30.06,10.0,SSE,9.2,-,N/A,,Clear,160,2012-11-07 11:53:00
4:53 AM,33.1,21.0,61,30.11,10.0,SSE,15.0,-,N/A,,Clear,160,2012-11-07 12:53:00
5:53 AM,27.0,19.0,72,30.17,10.0,SSE,11.5,-,N/A,,Clear,160,2012-11-07 13:53:00
6:53 AM,28.0,19.9,72,30.20,10.0,SSE,9.2,-,N/A,,Clear,150,2012-11-07 14:53:00
7:53 AM,42.1,24.1,49,30.15,10.0,South,9.2,-,N/A,,Clear,170,2012-11-07 15:53:00
8:53 AM,53.1,27.0,37,30.09,10.0,South,10.4,-,N/A,,Clear,180,2012-11-07 16:53:00
9:53 AM,61.0,25.0,25,30.03,10.0,Calm,Calm,-,N/A,,Clear,0,2012-11-07 17:53:00
10:53 AM,64.9,23.0,20,29.99,10.0,South,5.8,-,N/A,,Clear,180,2012-11-07 18:53:00
11:53 AM,66.0,19.9,17,29.95,10.0,Variable,4.6,-,N/A,,Clear,0,2012-11-07 19:53:00
12:53 PM,66.9,19.0,16,29.93,10.0,WSW,11.5,-,N/A,,Clear,250,2012-11-07 20:53:00
1:53 PM,66.9,19.0,16,29.91,10.0,WSW,11.5,-,N/A,,Clear,250,2012-11-07 21:53:00
2:53 PM,66.0,18.0,16,29.91,10.0,SW,8.1,-,N/A,,Clear,230,2012-11-07 22:53:00
3:53 PM,62.1,18.0,18,29.92,10.0,SW,6.9,-,N/A,,Clear,220,2012-11-07 23:53:00
4:53 PM,50.0,19.0,29,29.96,10.0,SSE,11.5,-,N/A,,Clear,160,2012-11-08 00:53:00
5:53 PM,46.0,18.0,33,30.00,10.0,South,9.2,-,N/A,,Clear,170,2012-11-08 01:53:00
6:53 PM,44.1,21.0,40,30.00,10.0,South,11.5,-,N/A,,Clear,180,2012-11-08 02:53:00
7:53 PM,41.0,19.9,43,29.94,10.0,SSW,11.5,-,N/A,,Clear,200,2012-11-08 03:53:00
8:53 PM,46.0,23.0,40,29.86,10.0,SSW,11.5,-,N/A,,Clear,200,2012-11-08 04:53:00
9:53 PM,46.9,24.1,41,29.81,10.0,SSW,15.0,-,N/A,,Clear,200,2012-11-08 05:53:00
10:53 PM,45.0,25.0,46,29.78,10.0,SSW,13.8,-,N/A,,Clear,200,2012-11-08 06:53:00
11:53 PM,42.1,25.0,51,29.77,10.0,South,10.4,-,N/A,,Clear,190,2012-11-08 07:53:00